createdAt,value
2018-06-21T00:00:30.771Z,20.53
2018-06-21T00:02:59.159Z,20.56
2018-06-21T00:05:27.442Z,20.57
2018-06-21T00:07:55.669Z,20.59
2018-06-21T00:10:23.704Z,20.62
2018-06-21T00:12:51.781Z,20.65
2018-06-21T00:15:20.040Z,20.69
2018-06-21T00:17:48.072Z,20.72
2018-06-21T00:20:16.409Z,20.73
2018-06-21T00:22:44.660Z,20.73
2018-06-21T00:25:12.951Z,20.76
2018-06-21T00:27:41.343Z,20.75
2018-06-21T00:30:09.732Z,20.75
2018-06-21T00:32:38.141Z,20.74
2018-06-21T00:35:06.535Z,20.73
2018-06-21T00:37:35.215Z,20.71
2018-06-21T00:40:04.335Z,20.70
2018-06-21T00:42:33.100Z,20.70
2018-06-21T00:45:01.953Z,20.68
2018-06-21T00:47:30.327Z,20.65
2018-06-21T00:49:58.515Z,20.63
2018-06-21T00:52:26.603Z,20.62
2018-06-21T00:54:54.656Z,20.59
2018-06-21T00:57:22.704Z,20.53
2018-06-21T00:59:50.764Z,20.47
2018-06-21T01:02:18.817Z,20.42
2018-06-21T01:04:46.843Z,20.39
2018-06-21T01:07:14.873Z,20.36
2018-06-21T01:09:42.916Z,20.34
2018-06-21T01:12:10.972Z,20.30
2018-06-21T01:14:39.008Z,20.04
2018-06-21T01:17:07.049Z,20.27
2018-06-21T01:19:35.103Z,20.26
2018-06-21T01:22:03.138Z,20.24
2018-06-21T01:24:31.244Z,20.23
2018-06-21T01:26:59.304Z,20.20
2018-06-21T01:29:27.367Z,20.20
2018-06-21T01:31:55.475Z,20.18
2018-06-21T01:34:23.554Z,20.16
2018-06-21T01:36:51.619Z,20.16
2018-06-21T01:39:19.687Z,20.18
2018-06-21T01:41:48.008Z,20.19
2018-06-21T01:44:16.053Z,20.22
2018-06-21T01:46:44.091Z,20.21
2018-06-21T01:49:12.165Z,20.19
2018-06-21T01:51:40.345Z,20.20
2018-06-21T01:54:08.643Z,20.19
2018-06-21T01:56:36.974Z,20.18
2018-06-21T01:59:05.627Z,20.17
2018-06-21T02:01:33.961Z,20.12
2018-06-21T02:04:02.333Z,20.10
2018-06-21T02:06:30.428Z,20.04
2018-06-21T02:08:58.487Z,20.01
2018-06-21T02:11:26.567Z,19.99
2018-06-21T02:13:54.615Z,19.96
2018-06-21T02:16:22.696Z,19.93
2018-06-21T02:18:50.759Z,19.90
2018-06-21T02:21:18.927Z,19.87
2018-06-21T02:23:46.980Z,19.83
2018-06-21T02:26:15.080Z,19.79
2018-06-21T02:28:43.208Z,19.77
2018-06-21T02:31:11.483Z,19.74
2018-06-21T02:33:39.924Z,19.70
2018-06-21T02:36:08.367Z,19.66
2018-06-21T02:38:36.723Z,19.62
2018-06-21T02:41:05.200Z,19.59
2018-06-21T02:43:33.410Z,19.56
2018-06-21T02:46:02.011Z,19.53
2018-06-21T02:48:30.112Z,19.51
2018-06-21T02:50:58.169Z,19.51
2018-06-21T02:53:26.260Z,19.48
2018-06-21T02:55:54.302Z,19.49
2018-06-21T02:58:22.347Z,19.46
2018-06-21T03:00:50.388Z,19.46
2018-06-21T03:03:18.447Z,19.46
2018-06-21T03:05:46.488Z,19.41
2018-06-21T03:08:14.664Z,19.40
2018-06-21T03:10:42.691Z,19.39
2018-06-21T03:13:10.731Z,19.34
2018-06-21T03:15:38.786Z,19.29
2018-06-21T03:18:06.843Z,19.31
2018-06-21T03:20:34.883Z,19.34
2018-06-21T03:23:02.955Z,19.37
2018-06-21T03:25:31.032Z,19.41
2018-06-21T03:27:59.272Z,19.45
2018-06-21T03:30:27.388Z,19.46
2018-06-21T03:32:55.429Z,19.49
2018-06-21T03:35:23.482Z,19.51
2018-06-21T03:37:51.551Z,19.59
2018-06-21T03:40:19.614Z,19.66
2018-06-21T03:42:47.671Z,19.72
2018-06-21T03:45:15.735Z,19.78
2018-06-21T03:47:43.824Z,19.86
2018-06-21T03:50:11.879Z,19.88
2018-06-21T03:52:39.917Z,19.90
2018-06-21T03:55:07.975Z,19.96
2018-06-21T03:57:36.003Z,20.00
2018-06-21T04:00:04.075Z,20.02
2018-06-21T04:02:32.107Z,19.99
2018-06-21T04:05:00.194Z,19.99
2018-06-21T04:07:28.236Z,20.03
2018-06-21T04:09:56.288Z,20.08
2018-06-21T04:12:24.331Z,20.13
2018-06-21T04:14:52.403Z,20.18
2018-06-21T04:17:20.436Z,20.19
2018-06-21T04:19:48.788Z,20.21
2018-06-21T04:22:16.847Z,20.28
2018-06-21T04:24:44.895Z,20.56
2018-06-21T04:27:13.018Z,21.07
2018-06-21T04:29:41.064Z,21.30
2018-06-21T04:32:09.220Z,21.41
2018-06-21T04:34:37.269Z,21.38
2018-06-21T04:37:05.344Z,21.35
2018-06-21T04:39:33.388Z,21.27
2018-06-21T04:42:01.444Z,21.29
2018-06-21T04:44:29.480Z,21.24
2018-06-21T04:46:57.535Z,21.26
2018-06-21T04:49:25.574Z,21.28
2018-06-21T04:51:53.690Z,21.43
2018-06-21T04:54:21.734Z,21.43
2018-06-21T04:56:49.992Z,21.49
2018-06-21T04:59:18.026Z,21.69
2018-06-21T05:01:46.091Z,21.85
2018-06-21T05:04:14.207Z,22.06
2018-06-21T05:06:42.259Z,22.09
2018-06-21T05:09:11.908Z,22.19
2018-06-21T05:11:39.960Z,22.12
2018-06-21T05:14:08.487Z,22.01
2018-06-21T05:16:36.515Z,21.92
2018-06-21T05:19:04.568Z,21.88
2018-06-21T05:21:32.929Z,21.87
2018-06-21T05:24:00.980Z,21.77
2018-06-21T05:26:29.106Z,21.65
2018-06-21T05:28:57.202Z,21.59
2018-06-21T05:31:25.226Z,21.53
2018-06-21T05:33:53.271Z,21.40
2018-06-21T05:36:21.451Z,21.43
2018-06-21T05:38:49.535Z,21.33
2018-06-21T05:41:17.574Z,21.33
2018-06-21T05:43:45.639Z,21.32
2018-06-21T05:46:13.668Z,21.33
2018-06-21T05:48:41.707Z,21.31
2018-06-21T05:51:09.739Z,21.28
2018-06-21T05:53:37.755Z,21.24
2018-06-21T05:56:05.843Z,21.16
2018-06-21T05:58:33.872Z,21.05
2018-06-21T06:01:01.930Z,20.95
2018-06-21T06:03:30.052Z,20.75
2018-06-21T06:05:58.096Z,20.62
2018-06-21T06:08:26.188Z,20.55
2018-06-21T06:10:54.320Z,20.46
2018-06-21T06:13:22.354Z,20.37
2018-06-21T06:15:50.412Z,20.25
2018-06-21T06:18:18.439Z,20.05
2018-06-21T06:20:46.456Z,19.98
2018-06-21T06:23:14.508Z,19.83
2018-06-21T06:25:42.732Z,19.67
2018-06-21T06:28:10.756Z,19.43
2018-06-21T06:30:38.794Z,19.29
2018-06-21T06:33:06.883Z,19.15
2018-06-21T06:35:34.875Z,18.99
2018-06-21T06:38:03.140Z,18.89
2018-06-21T06:40:31.234Z,18.85
2018-06-21T06:42:59.346Z,18.85
2018-06-21T06:45:27.432Z,18.80
2018-06-21T06:47:55.451Z,18.76
2018-06-21T06:50:23.715Z,18.66
2018-06-21T06:52:51.759Z,18.60
2018-06-21T06:55:19.803Z,18.48
2018-06-21T06:57:47.859Z,18.29
2018-06-21T07:00:15.916Z,18.00
2018-06-21T07:02:44.043Z,17.85
2018-06-21T07:05:12.071Z,17.75
2018-06-21T07:07:40.115Z,17.64
2018-06-21T07:10:08.180Z,17.45
2018-06-21T07:12:36.213Z,17.29
2018-06-21T07:15:04.244Z,17.25
2018-06-21T07:17:32.308Z,17.15
2018-06-21T07:20:00.336Z,17.10
2018-06-21T07:22:28.511Z,16.98
2018-06-21T07:24:56.539Z,17.02
2018-06-21T07:27:24.631Z,16.93
2018-06-21T07:29:52.706Z,16.87
2018-06-21T07:32:20.675Z,16.75
2018-06-21T07:34:48.716Z,16.82
2018-06-21T07:37:16.757Z,16.81
2018-06-21T07:39:44.848Z,16.55
2018-06-21T07:42:12.891Z,16.45
2018-06-21T07:44:40.924Z,16.14
2018-06-21T07:47:08.971Z,16.07
2018-06-21T07:49:37.020Z,16.09
2018-06-21T07:52:05.048Z,15.99
2018-06-21T07:54:33.222Z,15.91
2018-06-21T07:57:01.255Z,15.92
2018-06-21T07:59:29.320Z,15.96
2018-06-21T08:01:57.460Z,15.86
2018-06-21T08:04:25.553Z,15.74
2018-06-21T08:06:53.588Z,15.61
2018-06-21T08:09:21.636Z,15.43
2018-06-21T08:11:49.703Z,15.44
2018-06-21T08:14:17.811Z,15.43
2018-06-21T08:16:45.861Z,15.19
2018-06-21T08:19:14.012Z,15.09
2018-06-21T08:21:42.047Z,15.27
2018-06-21T08:24:10.357Z,15.54
2018-06-21T08:26:38.479Z,15.70
2018-06-21T08:29:06.560Z,16.27
2018-06-21T08:31:34.629Z,16.93
2018-06-21T08:34:02.818Z,17.42
2018-06-21T08:36:30.936Z,17.54
2018-06-21T08:38:59.022Z,17.64
2018-06-21T08:41:31.777Z,17.67
2018-06-21T08:43:59.807Z,17.86
2018-06-21T08:46:27.976Z,18.19
2018-06-21T08:48:56.129Z,18.34
2018-06-21T08:51:24.175Z,18.59
2018-06-21T08:53:52.231Z,18.49
2018-06-21T08:56:20.272Z,18.74
2018-06-21T08:58:48.595Z,18.94
2018-06-21T09:01:16.651Z,19.24
2018-06-21T09:03:44.706Z,19.52
2018-06-21T09:06:12.816Z,19.64
2018-06-21T09:08:40.899Z,19.71
2018-06-21T09:11:08.995Z,19.87
2018-06-21T09:13:38.011Z,19.91
2018-06-21T09:16:07.811Z,19.92
2018-06-21T09:18:35.879Z,19.94
2018-06-21T09:21:03.970Z,19.92
2018-06-21T09:23:32.079Z,20.20
2018-06-21T09:26:00.112Z,19.86
2018-06-21T09:28:28.186Z,19.77
2018-06-21T09:30:56.290Z,19.55
2018-06-21T09:33:24.350Z,20.03
2018-06-21T09:35:52.464Z,20.68
2018-06-21T09:38:26.012Z,21.13
2018-06-21T09:40:59.387Z,22.00
2018-06-21T09:43:32.745Z,22.69
2018-06-21T09:46:06.151Z,22.78
2018-06-21T09:48:34.706Z,22.89
2018-06-21T09:51:02.930Z,22.53
2018-06-21T09:53:31.121Z,22.88
2018-06-21T09:56:00.343Z,22.70
2018-06-21T09:58:28.704Z,22.47
2018-06-21T10:01:01.699Z,22.21
2018-06-21T10:03:29.752Z,22.10
2018-06-21T10:05:58.095Z,21.86
2018-06-21T10:08:26.263Z,21.44
2018-06-21T10:10:54.295Z,21.11
2018-06-21T10:13:22.539Z,20.82
2018-06-21T10:15:50.590Z,20.50
2018-06-21T10:18:18.596Z,19.41
2018-06-21T10:20:46.643Z,18.71
2018-06-21T10:23:15.001Z,18.22
2018-06-21T10:25:43.045Z,17.75
2018-06-21T10:28:11.155Z,17.21
2018-06-21T10:30:39.702Z,17.19
2018-06-21T10:33:07.831Z,17.45
2018-06-21T10:35:36.034Z,17.45
2018-06-21T10:38:04.504Z,17.63
2018-06-21T10:40:33.083Z,17.70
2018-06-21T10:43:01.342Z,17.88
2018-06-21T10:45:29.395Z,18.00
2018-06-21T10:47:58.292Z,17.98
2018-06-21T10:50:26.396Z,18.19
2018-06-21T10:52:54.443Z,18.20
2018-06-21T10:55:22.546Z,18.14
2018-06-21T10:57:50.595Z,18.17
2018-06-21T11:00:18.677Z,18.30
2018-06-21T11:02:46.776Z,18.63
2018-06-21T11:05:14.828Z,18.75
2018-06-21T11:07:45.910Z,18.73
2018-06-21T11:10:13.991Z,18.67
2018-06-21T11:12:42.047Z,18.49
2018-06-21T11:15:10.080Z,18.50
2018-06-21T11:17:38.120Z,18.48
2018-06-21T11:20:06.391Z,18.68
2018-06-21T11:22:34.463Z,18.64
2018-06-21T11:25:02.532Z,18.76
2018-06-21T11:27:30.585Z,18.96
2018-06-21T11:29:58.623Z,18.85
2018-06-21T11:32:26.679Z,18.73
2018-06-21T11:34:54.719Z,18.50
2018-06-21T11:37:22.779Z,18.57
2018-06-21T11:39:50.831Z,18.71
2018-06-21T11:42:18.916Z,18.71
2018-06-21T11:44:46.967Z,18.65
2018-06-21T11:47:15.119Z,18.70
2018-06-21T11:49:43.376Z,18.81
2018-06-21T11:52:11.719Z,19.03
2018-06-21T11:54:40.163Z,19.19
2018-06-21T11:57:08.489Z,18.95
2018-06-21T11:59:36.977Z,19.10
2018-06-21T12:02:05.784Z,19.25
2018-06-21T12:04:34.299Z,19.22
2018-06-21T12:07:03.435Z,19.26
2018-06-21T12:09:31.579Z,19.25
2018-06-21T12:11:59.644Z,19.24
2018-06-21T12:14:27.700Z,19.22
2018-06-21T12:16:55.776Z,18.93
2018-06-21T12:19:23.847Z,19.16
2018-06-21T12:21:51.900Z,19.05
2018-06-21T12:24:19.971Z,19.18
2018-06-21T12:26:48.059Z,19.40
2018-06-21T12:29:16.189Z,19.27
2018-06-21T12:31:44.415Z,19.19
2018-06-21T12:34:12.631Z,19.00
2018-06-21T12:36:40.925Z,19.08
2018-06-21T12:39:09.588Z,19.31
2018-06-21T12:41:38.236Z,19.42
2018-06-21T12:44:07.040Z,19.57
2018-06-21T12:46:35.819Z,19.48
2018-06-21T12:49:04.050Z,19.49
2018-06-21T12:51:32.331Z,19.34
2018-06-21T12:54:00.406Z,19.08
2018-06-21T12:56:28.487Z,19.17
2018-06-21T12:58:56.526Z,19.11
2018-06-21T13:01:24.607Z,19.11
2018-06-21T13:03:52.646Z,19.32
2018-06-21T13:06:20.707Z,19.59
2018-06-21T13:09:00.228Z,19.84
2018-06-21T13:11:39.727Z,20.01
2018-06-21T13:14:19.489Z,19.99
2018-06-21T13:16:47.535Z,20.12
2018-06-21T13:19:15.579Z,20.19
2018-06-21T13:21:43.624Z,20.23
2018-06-21T13:24:11.673Z,20.26
2018-06-21T13:26:39.703Z,20.30
2018-06-21T13:29:07.766Z,20.01
2018-06-21T13:31:35.941Z,19.96
2018-06-21T13:34:04.101Z,19.78
2018-06-21T13:36:32.627Z,19.80
2018-06-21T13:39:01.494Z,19.03
2018-06-21T13:41:29.595Z,18.78
2018-06-21T13:43:57.634Z,18.33
2018-06-21T13:46:25.691Z,18.50
2018-06-21T13:48:53.864Z,18.67
2018-06-21T13:51:21.920Z,18.75
2018-06-21T13:53:49.943Z,18.88
2018-06-21T13:56:18.004Z,18.76
2018-06-21T13:58:46.087Z,18.89
2018-06-21T14:01:14.211Z,18.92
2018-06-21T14:03:42.402Z,19.06
2018-06-21T14:06:10.625Z,19.00
2018-06-21T14:08:38.980Z,19.06
2018-06-21T14:11:07.036Z,19.10
2018-06-21T14:13:35.417Z,19.17
2018-06-21T14:16:03.770Z,19.34
2018-06-21T14:18:32.558Z,19.30
2018-06-21T14:21:00.852Z,19.16
2018-06-21T14:23:29.152Z,19.12
2018-06-21T14:25:57.231Z,19.11
2018-06-21T14:28:25.240Z,19.22
2018-06-21T14:30:53.256Z,19.32
2018-06-21T14:33:21.292Z,19.65
2018-06-21T14:35:49.310Z,19.75
2018-06-21T14:38:17.376Z,19.75
2018-06-21T14:40:45.398Z,19.80
2018-06-21T14:43:13.440Z,19.65
2018-06-21T14:45:41.475Z,19.70
2018-06-21T14:48:09.564Z,19.37
2018-06-21T14:50:37.543Z,19.35
2018-06-21T14:53:05.687Z,19.30
2018-06-21T14:55:33.951Z,19.02
2018-06-21T14:58:02.236Z,19.10
2018-06-21T15:00:30.266Z,19.10
2018-06-21T15:02:58.338Z,19.04
2018-06-21T15:05:26.440Z,18.38
2018-06-21T15:07:54.456Z,17.75
2018-06-21T15:10:22.568Z,17.69
2018-06-21T15:12:50.604Z,17.63
2018-06-21T15:15:18.692Z,17.98
2018-06-21T15:17:46.753Z,18.25
2018-06-21T15:20:14.808Z,18.29
2018-06-21T15:22:42.835Z,18.27
2018-06-21T15:25:10.875Z,18.38
2018-06-21T15:27:38.903Z,18.26
2018-06-21T15:30:06.936Z,18.46
2018-06-21T15:32:34.982Z,18.66
2018-06-21T15:35:03.054Z,18.69
2018-06-21T15:37:31.100Z,18.86
2018-06-21T15:39:59.211Z,18.79
2018-06-21T15:42:27.249Z,18.20
2018-06-21T15:44:55.297Z,18.12
2018-06-21T15:47:23.376Z,17.77
2018-06-21T15:49:51.413Z,17.27
2018-06-21T15:52:19.671Z,16.84
2018-06-21T15:54:49.414Z,16.71
2018-06-21T15:57:19.623Z,16.39
2018-06-21T15:59:48.760Z,16.15
2018-06-21T16:02:17.739Z,16.24
2018-06-21T16:04:46.803Z,16.09
2018-06-21T16:07:15.744Z,16.44
2018-06-21T16:09:44.758Z,16.71
2018-06-21T16:12:14.311Z,16.90
2018-06-21T16:14:43.403Z,16.44
2018-06-21T16:17:11.632Z,16.36
2018-06-21T16:19:39.900Z,16.69
2018-06-21T16:22:08.216Z,16.68
2018-06-21T16:24:36.490Z,16.71
2018-06-21T16:27:05.100Z,16.62
2018-06-21T16:29:34.539Z,16.57
2018-06-21T16:32:02.759Z,16.33
2018-06-21T16:34:31.096Z,16.52
2018-06-21T16:36:59.227Z,16.77
2018-06-21T16:39:27.375Z,16.64
2018-06-21T16:41:55.447Z,16.59
2018-06-21T16:44:23.523Z,16.69
2018-06-21T16:46:51.627Z,16.72
2018-06-21T16:49:19.710Z,16.83
2018-06-21T16:51:47.760Z,16.79
2018-06-21T16:54:15.802Z,16.99
2018-06-21T16:56:44.071Z,16.98
2018-06-21T16:59:12.136Z,16.87
2018-06-21T17:01:40.265Z,17.01
2018-06-21T17:04:08.281Z,17.00
2018-06-21T17:06:36.323Z,16.67
2018-06-21T17:09:06.252Z,16.93
2018-06-21T17:11:34.309Z,16.99
2018-06-21T17:14:02.327Z,17.00
2018-06-21T17:16:30.403Z,16.63
2018-06-21T17:18:58.446Z,16.85
2018-06-21T17:21:26.485Z,16.73
2018-06-21T17:23:55.351Z,16.70
2018-06-21T17:26:23.493Z,16.46
2018-06-21T17:28:51.534Z,16.46
2018-06-21T17:31:19.571Z,16.28
2018-06-21T17:33:47.763Z,16.10
2018-06-21T17:36:15.891Z,15.15
2018-06-21T17:38:44.419Z,14.48
2018-06-21T17:41:13.267Z,14.15
2018-06-21T17:43:41.566Z,14.08
2018-06-21T17:46:10.008Z,14.13
2018-06-21T17:48:38.318Z,14.14
2018-06-21T17:51:06.384Z,14.15
2018-06-21T17:53:34.423Z,14.16
2018-06-21T17:56:02.479Z,14.13
2018-06-21T17:58:30.630Z,14.09
2018-06-21T18:00:58.691Z,14.08
2018-06-21T18:03:26.732Z,14.07
2018-06-21T18:05:54.798Z,13.99
2018-06-21T18:08:22.852Z,14.04
2018-06-21T18:10:50.979Z,14.03
2018-06-21T18:13:18.972Z,14.05
2018-06-21T18:15:47.127Z,14.06
2018-06-21T18:18:15.172Z,13.99
2018-06-21T18:20:43.624Z,13.94
2018-06-21T18:23:11.683Z,13.98
2018-06-21T18:25:40.703Z,13.96
2018-06-21T18:28:09.078Z,13.92
2018-06-21T18:30:37.143Z,13.95
2018-06-21T18:33:05.235Z,13.93
2018-06-21T18:35:33.363Z,13.88
2018-06-21T18:38:01.351Z,13.85
2018-06-21T18:40:29.851Z,13.85
2018-06-21T18:42:57.939Z,13.83
2018-06-21T18:45:25.992Z,13.78
2018-06-21T18:47:54.599Z,13.75
2018-06-21T18:50:24.517Z,13.76
2018-06-21T18:52:53.291Z,13.77
2018-06-21T18:55:21.988Z,13.80
2018-06-21T18:57:50.057Z,13.87
2018-06-21T19:00:18.198Z,13.91
2018-06-21T19:02:47.183Z,13.95
2018-06-21T19:05:15.599Z,13.97
2018-06-21T19:07:43.647Z,14.01
2018-06-21T19:10:17.150Z,13.97
2018-06-21T19:12:45.235Z,14.02
2018-06-21T19:15:13.304Z,13.98
2018-06-21T19:17:41.382Z,13.96
2018-06-21T19:20:09.903Z,13.24
2018-06-21T19:22:37.967Z,13.87
2018-06-21T19:25:06.055Z,13.76
2018-06-21T19:27:37.151Z,13.72
2018-06-21T19:30:05.595Z,13.67
2018-06-21T19:32:33.671Z,13.65
2018-06-21T19:35:01.736Z,13.66
2018-06-21T19:37:29.782Z,13.61
2018-06-21T19:39:57.855Z,13.61
2018-06-21T19:42:25.920Z,13.56
2018-06-21T19:44:54.052Z,13.59
2018-06-21T19:47:22.175Z,13.53
2018-06-21T19:49:50.367Z,13.47
2018-06-21T19:52:18.443Z,13.44
2018-06-21T19:54:46.521Z,13.42
2018-06-21T19:57:14.601Z,13.39
2018-06-21T19:59:42.931Z,13.41
2018-06-21T20:02:11.517Z,13.13
2018-06-21T20:04:39.620Z,13.37
2018-06-21T20:07:08.686Z,13.30
2018-06-21T20:09:37.741Z,13.20
2018-06-21T20:12:05.987Z,13.09
2018-06-21T20:14:34.068Z,13.04
2018-06-21T20:17:02.167Z,13.00
2018-06-21T20:19:34.471Z,12.96
2018-06-21T20:22:02.524Z,12.91
2018-06-21T20:24:30.583Z,12.89
2018-06-21T20:26:58.671Z,12.86
2018-06-21T20:29:26.843Z,12.81
2018-06-21T20:31:54.931Z,12.76
2018-06-21T20:34:23.789Z,12.73
2018-06-21T20:36:51.919Z,12.71
2018-06-21T20:39:19.987Z,12.68
2018-06-21T20:41:48.061Z,12.67
2018-06-21T20:44:16.185Z,12.66
2018-06-21T20:46:44.352Z,12.66
2018-06-21T20:49:12.856Z,12.66
2018-06-21T20:51:41.049Z,12.68
2018-06-21T20:54:09.220Z,12.64
2018-06-21T20:56:37.533Z,12.57
2018-06-21T20:59:06.439Z,12.53
2018-06-21T21:01:34.777Z,12.48
2018-06-21T21:04:03.109Z,12.49
2018-06-21T21:06:31.432Z,12.48
2018-06-21T21:08:59.700Z,12.50
2018-06-21T21:11:27.807Z,12.51
2018-06-21T21:13:55.886Z,12.50
2018-06-21T21:16:23.968Z,12.50
2018-06-21T21:18:52.070Z,12.49
2018-06-21T21:21:20.103Z,12.48
2018-06-21T21:23:48.349Z,12.46
2018-06-21T21:26:16.393Z,12.43
2018-06-21T21:28:44.526Z,12.43
2018-06-21T21:31:12.599Z,12.43
2018-06-21T21:33:40.743Z,12.41
2018-06-21T21:36:08.803Z,12.34
2018-06-21T21:38:36.955Z,12.31
2018-06-21T21:41:04.999Z,12.28
2018-06-21T21:43:33.861Z,12.24
2018-06-21T21:46:01.931Z,12.24
2018-06-21T21:48:29.993Z,12.22
2018-06-21T21:50:58.038Z,12.21
2018-06-21T21:53:26.092Z,12.17
2018-06-21T21:55:54.131Z,12.11
2018-06-21T21:58:22.248Z,12.11
2018-06-21T22:00:52.506Z,12.09
2018-06-21T22:03:20.584Z,12.06
2018-06-21T22:05:48.634Z,12.00
2018-06-21T22:08:16.687Z,11.98
2018-06-21T22:10:45.659Z,11.98
2018-06-21T22:13:14.152Z,11.99
2018-06-21T22:15:42.777Z,11.99
2018-06-21T22:18:10.998Z,11.99
2018-06-21T22:20:39.460Z,11.98
2018-06-21T22:23:07.608Z,12.01
2018-06-21T22:25:35.736Z,12.02
2018-06-21T22:28:03.899Z,12.00
2018-06-21T22:30:31.946Z,11.98
2018-06-21T22:33:00.556Z,12.01
2018-06-21T22:35:28.924Z,12.00
2018-06-21T22:37:56.979Z,12.01
2018-06-21T22:40:25.027Z,12.00
2018-06-21T22:42:53.063Z,12.04
2018-06-21T22:45:21.088Z,12.05
2018-06-21T22:47:49.127Z,12.08
2018-06-21T22:50:17.151Z,12.09
2018-06-21T22:52:45.221Z,12.13
2018-06-21T22:55:13.234Z,12.16
2018-06-21T22:57:41.282Z,12.15
2018-06-21T23:00:09.313Z,12.10
2018-06-21T23:02:37.352Z,12.14
2018-06-21T23:05:05.413Z,12.13
2018-06-21T23:07:33.412Z,12.17
2018-06-21T23:10:01.434Z,12.16
2018-06-21T23:12:29.623Z,12.11
2018-06-21T23:14:57.644Z,12.13
2018-06-21T23:17:25.672Z,12.14
2018-06-21T23:19:53.718Z,12.13
2018-06-21T23:22:21.740Z,12.14
2018-06-21T23:24:49.767Z,12.09
2018-06-21T23:27:17.867Z,12.11
2018-06-21T23:29:45.888Z,12.12
2018-06-21T23:32:13.925Z,12.15
2018-06-21T23:34:41.975Z,12.12
2018-06-21T23:37:09.988Z,12.14
2018-06-21T23:39:38.019Z,12.07
2018-06-21T23:42:06.066Z,12.01
2018-06-21T23:44:34.091Z,11.98
2018-06-21T23:47:02.147Z,11.83
2018-06-21T23:49:30.183Z,11.84
2018-06-21T23:51:58.187Z,11.83
2018-06-21T23:54:26.513Z,11.74
2018-06-21T23:56:54.560Z,11.75
2018-06-21T23:59:22.589Z,11.73
